createdAt,value
2023-01-27T00:10:58.730Z,96.4
2023-01-27T00:22:58.611Z,96.4
2023-01-27T00:34:58.636Z,96.3
2023-01-27T00:46:58.623Z,96.3
2023-01-27T00:58:58.736Z,96.3
2023-01-27T01:10:58.720Z,96.4
2023-01-27T01:22:58.627Z,96.4
2023-01-27T01:34:58.617Z,96.3
2023-01-27T01:46:58.749Z,96.3
2023-01-27T01:58:58.620Z,96.4
2023-01-27T02:10:58.778Z,96.4
2023-01-27T02:22:58.620Z,96.4
2023-01-27T02:34:58.737Z,96.3
2023-01-27T02:46:58.786Z,96.3
2023-01-27T02:58:59.210Z,96.3
2023-01-27T03:10:58.705Z,96.3
2023-01-27T03:22:58.733Z,96.3
2023-01-27T03:34:58.710Z,96.3
2023-01-27T03:46:58.690Z,96.3
2023-01-27T03:58:58.703Z,96.3
2023-01-27T04:10:58.615Z,96.3
2023-01-27T04:22:58.620Z,96.3
2023-01-27T04:34:58.712Z,96.3
2023-01-27T04:46:58.729Z,96.2
2023-01-27T04:58:58.736Z,95.6
2023-01-27T05:10:58.624Z,95.1
2023-01-27T05:22:58.726Z,94.9
2023-01-27T05:34:58.937Z,94.6
2023-01-27T05:46:58.745Z,94.2
2023-01-27T05:58:58.657Z,93.9
2023-01-27T06:10:58.693Z,93.6
2023-01-27T06:22:58.645Z,93.8
2023-01-27T06:34:58.712Z,94.2
2023-01-27T06:46:58.639Z,94.5
2023-01-27T06:58:58.618Z,94.5
2023-01-27T07:10:58.708Z,94.4
2023-01-27T07:22:58.746Z,94.5
2023-01-27T07:34:58.615Z,94.8
2023-01-27T07:46:58.697Z,94.9
2023-01-27T07:58:58.725Z,94.5
2023-01-27T08:10:58.612Z,94.5
2023-01-27T08:22:58.624Z,94.6
2023-01-27T08:34:58.683Z,94.5
2023-01-27T08:46:58.692Z,94.6
2023-01-27T08:58:58.688Z,94.2
2023-01-27T09:10:58.729Z,94.1
2023-01-27T09:22:58.692Z,93.9
2023-01-27T09:34:58.699Z,94.3
2023-01-27T09:47:00.049Z,94.5
2023-01-27T09:58:58.732Z,93.6
2023-01-27T10:10:58.622Z,93.4
2023-01-27T10:22:58.622Z,93.9
2023-01-27T10:34:58.623Z,93.8
2023-01-27T10:46:58.839Z,93.8
2023-01-27T10:58:59.045Z,93.6
2023-01-27T11:10:58.699Z,93.5
2023-01-27T11:22:58.638Z,93.3
2023-01-27T11:34:58.726Z,93.0
2023-01-27T11:46:58.711Z,92.1
2023-01-27T11:58:58.743Z,91.1
2023-01-27T12:10:58.740Z,90.5
2023-01-27T12:22:58.704Z,89.9
2023-01-27T12:34:58.779Z,90.3
2023-01-27T12:46:58.677Z,90.0
2023-01-27T12:58:58.706Z,89.3
2023-01-27T13:10:58.711Z,89.1
2023-01-27T13:22:58.709Z,90.6
2023-01-27T13:34:58.619Z,91.0
2023-01-27T13:46:58.623Z,92.3
2023-01-27T13:58:58.690Z,90.3
2023-01-27T14:10:58.697Z,90.3
2023-01-27T14:22:58.622Z,89.3
2023-01-27T14:34:58.610Z,90.3
2023-01-27T14:46:58.696Z,91.0
2023-01-27T14:58:58.707Z,89.9
2023-01-27T15:10:58.708Z,90.0
2023-01-27T15:22:58.626Z,90.3
2023-01-27T15:34:58.688Z,92.0
2023-01-27T15:46:58.637Z,92.5
2023-01-27T15:58:58.629Z,92.5
2023-01-27T16:10:58.638Z,92.4
2023-01-27T16:22:58.894Z,91.6
2023-01-27T16:34:58.737Z,89.7
2023-01-27T16:47:05.056Z,89.4
2023-01-27T16:58:58.624Z,89.7
2023-01-27T17:10:58.683Z,90.5
2023-01-27T17:22:58.729Z,91.3
2023-01-27T17:34:58.623Z,91.4
2023-01-27T17:46:58.625Z,91.7
2023-01-27T17:58:58.684Z,91.5
2023-01-27T18:10:58.732Z,91.6
2023-01-27T18:22:58.730Z,91.2
2023-01-27T18:34:58.683Z,91.3
2023-01-27T18:46:58.643Z,91.5
2023-01-27T18:58:58.726Z,90.5
2023-01-27T19:10:58.619Z,90.6
2023-01-27T19:22:58.629Z,90.6
2023-01-27T19:34:58.619Z,90.8
2023-01-27T19:46:58.719Z,91.0
2023-01-27T19:58:58.683Z,91.5
2023-01-27T20:10:58.609Z,91.5
2023-01-27T20:22:58.692Z,90.8
2023-01-27T20:34:58.684Z,91.1
2023-01-27T20:46:58.629Z,91.2
2023-01-27T20:58:58.706Z,90.9
2023-01-27T21:10:58.685Z,91.4
2023-01-27T21:22:58.705Z,90.6
2023-01-27T21:34:58.620Z,90.5
2023-01-27T21:46:58.827Z,90.9
2023-01-27T21:58:58.699Z,91.0
2023-01-27T22:10:58.620Z,91.1
2023-01-27T22:22:58.754Z,90.3
2023-01-27T22:34:58.648Z,90.1
2023-01-27T22:46:58.707Z,89.8
2023-01-27T22:58:58.659Z,90.0
2023-01-27T23:10:58.745Z,89.3
2023-01-27T23:22:58.617Z,89.2
2023-01-27T23:34:58.616Z,89.5
2023-01-27T23:46:58.618Z,89.7
2023-01-27T23:58:58.741Z,91.0
